Terminal Aerodrome Forecast
Issued by NWS

Home | Current Version | Previous Version | Text Only | Print | Product List | Glossary On
Versions: 1 2 3 4 5 6 7 8 9 10 11 12 13 14 15 16 17 18 19 20
000
FTUS43 KGRB 060500
TAFCWA
TAF
KCWA 060520Z 0606/0706 23005KT P6SM SKC
     FM061000 21009KT P6SM SCT150 BKN200
     FM061600 23012G20KT P6SM SCT040 BKN090
     FM062100 25009KT P6SM SCT020 SCT050
     FM070200 24004KT P6SM SCT020 BKN150
      AMD LTD TO CLD VIS AND WIND TIL 061200=

USA.gov is the U.S. government's official web portal to all federal, state and local government web resources and services.